createdAt,value
2018-01-11T00:01:43.334Z,99.99
2018-01-11T00:02:43.390Z,99.99
2018-01-11T00:04:36.390Z,99.99
2018-01-11T00:05:36.426Z,99.99
2018-01-11T00:07:29.410Z,99.99
2018-01-11T00:08:29.459Z,99.99
2018-01-11T00:10:22.459Z,99.99
2018-01-11T00:11:22.494Z,99.99
2018-01-11T00:13:15.501Z,99.99
2018-01-11T00:14:15.536Z,99.99
2018-01-11T00:16:08.520Z,99.99
2018-01-11T00:17:08.572Z,99.99
2018-01-11T00:19:01.586Z,99.99
2018-01-11T00:20:01.623Z,99.99
2018-01-11T00:21:54.631Z,99.99
2018-01-11T00:22:54.661Z,99.99
2018-01-11T00:24:47.664Z,99.99
2018-01-11T00:25:47.723Z,99.99
2018-01-11T00:27:40.714Z,99.99
2018-01-11T00:28:40.734Z,99.99
2018-01-11T00:30:33.797Z,99.99
2018-01-11T00:31:33.836Z,99.99
2018-01-11T00:33:26.835Z,99.99
2018-01-11T00:34:26.871Z,99.99
2018-01-11T00:36:19.863Z,99.99
2018-01-11T00:37:19.906Z,99.99
2018-01-11T00:39:12.916Z,99.99
2018-01-11T00:40:12.939Z,99.99
2018-01-11T00:42:05.918Z,99.99
2018-01-11T00:43:05.973Z,99.99
2018-01-11T00:44:58.978Z,99.99
2018-01-11T00:45:59.025Z,99.99
2018-01-11T00:47:52.507Z,99.99
2018-01-11T00:48:52.559Z,99.99
2018-01-11T00:50:45.564Z,99.99
2018-01-11T00:51:45.598Z,99.99
2018-01-11T00:53:38.602Z,99.99
2018-01-11T00:54:38.636Z,99.99
2018-01-11T00:56:31.633Z,99.99
2018-01-11T00:57:31.675Z,99.99
2018-01-11T00:59:24.674Z,99.99
2018-01-11T01:00:24.705Z,99.99
2018-01-11T01:02:17.689Z,99.99
2018-01-11T01:03:17.745Z,99.99
2018-01-11T01:05:10.739Z,99.99
2018-01-11T01:06:10.775Z,99.99
2018-01-11T01:08:03.754Z,99.99
2018-01-11T01:09:03.810Z,99.99
2018-01-11T01:10:56.810Z,99.99
2018-01-11T01:11:56.847Z,99.99
2018-01-11T01:13:49.846Z,99.99
2018-01-11T01:14:49.879Z,99.99
2018-01-11T01:16:42.863Z,99.99
2018-01-11T01:17:42.915Z,99.99
2018-01-11T01:19:35.921Z,99.99
2018-01-11T01:20:35.958Z,99.99
2018-01-11T01:22:28.942Z,99.99
2018-01-11T01:23:28.993Z,99.99
2018-01-11T01:25:21.991Z,99.99
2018-01-11T01:26:22.027Z,99.99
2018-01-11T01:28:15.008Z,99.99
2018-01-11T01:29:15.065Z,99.99
2018-01-11T01:31:08.063Z,99.99
2018-01-11T01:32:08.098Z,99.99
2018-01-11T01:34:01.106Z,99.99
2018-01-11T01:35:01.166Z,99.99
2018-01-11T01:36:54.127Z,99.99
2018-01-11T01:37:54.180Z,99.99
2018-01-11T01:39:47.178Z,99.99
2018-01-11T01:40:47.213Z,99.99
2018-01-11T01:42:40.204Z,99.99
2018-01-11T01:43:40.248Z,99.99
2018-01-11T01:45:33.247Z,99.99
2018-01-11T01:46:33.286Z,99.99
2018-01-11T01:48:26.771Z,99.99
2018-01-11T01:49:26.823Z,99.99
2018-01-11T01:51:19.822Z,99.99
2018-01-11T01:52:19.860Z,99.99
2018-01-11T01:54:12.858Z,99.99
2018-01-11T01:55:12.908Z,99.99
2018-01-11T01:57:05.929Z,99.99
2018-01-11T01:58:05.928Z,99.99
2018-01-11T01:59:58.928Z,99.99
2018-01-11T02:00:58.962Z,99.99
2018-01-11T02:02:51.946Z,99.99
2018-01-11T02:03:51.999Z,99.99
2018-01-11T02:05:45.001Z,99.99
2018-01-11T02:06:45.034Z,99.99
2018-01-11T02:08:38.018Z,99.99
2018-01-11T02:09:38.068Z,99.99
2018-01-11T02:11:31.100Z,99.99
2018-01-11T02:12:31.120Z,99.99
2018-01-11T02:14:24.118Z,99.99
2018-01-11T02:15:24.158Z,99.99
2018-01-11T02:17:17.136Z,99.99
2018-01-11T02:18:17.187Z,99.99
2018-01-11T02:20:10.194Z,99.99
2018-01-11T02:21:10.226Z,99.99
2018-01-11T02:23:03.204Z,99.99
2018-01-11T02:24:03.267Z,99.99
2018-01-11T02:25:56.260Z,99.99
2018-01-11T02:26:56.292Z,99.99
2018-01-11T02:28:49.271Z,99.99
2018-01-11T02:29:49.325Z,99.99
2018-01-11T02:31:42.326Z,99.99
2018-01-11T02:32:42.360Z,99.99
2018-01-11T02:34:35.364Z,99.99
2018-01-11T02:35:35.400Z,99.99
2018-01-11T02:37:28.378Z,99.99
2018-01-11T02:38:28.431Z,99.99
2018-01-11T02:40:21.429Z,99.99
2018-01-11T02:41:21.465Z,99.99
2018-01-11T02:43:14.448Z,99.99
2018-01-11T02:44:14.507Z,99.99
2018-01-11T02:46:07.499Z,99.99
2018-01-11T02:47:07.534Z,99.99
2018-01-11T02:49:00.512Z,99.99
2018-01-11T02:50:00.568Z,99.99
2018-01-11T02:51:53.579Z,99.99
2018-01-11T02:52:53.618Z,99.99
2018-01-11T02:54:46.616Z,99.99
2018-01-11T02:55:46.653Z,99.99
2018-01-11T02:57:39.633Z,99.99
2018-01-11T02:58:39.688Z,99.99
2018-01-11T03:00:32.686Z,99.99
2018-01-11T03:01:32.723Z,99.99
2018-01-11T03:03:25.698Z,99.99
2018-01-11T03:04:25.773Z,99.99
2018-01-11T03:06:18.757Z,99.99
2018-01-11T03:07:18.790Z,99.99
2018-01-11T03:09:11.792Z,99.99
2018-01-11T03:10:11.824Z,99.99
2018-01-11T03:12:04.825Z,99.99
2018-01-11T03:13:04.877Z,99.99
2018-01-11T03:14:57.847Z,99.99
2018-01-11T03:15:57.897Z,99.99
2018-01-11T03:17:51.006Z,99.99
2018-01-11T03:18:50.931Z,99.99
2018-01-11T03:20:43.951Z,99.99
2018-01-11T03:21:43.968Z,99.99
2018-01-11T03:23:36.988Z,99.99
2018-01-11T03:24:37.002Z,99.99
2018-01-11T03:26:30.014Z,99.99
2018-01-11T03:27:30.034Z,99.99
2018-01-11T03:29:23.018Z,99.99
2018-01-11T03:30:23.111Z,99.99
2018-01-11T03:32:16.068Z,99.99
2018-01-11T03:33:16.169Z,99.99
2018-01-11T03:35:09.084Z,99.99
2018-01-11T03:36:09.281Z,99.99
2018-01-11T03:38:02.157Z,99.99
2018-01-11T03:39:02.201Z,99.99
2018-01-11T03:40:55.187Z,99.99
2018-01-11T03:41:55.240Z,99.99
2018-01-11T03:43:48.214Z,99.99
2018-01-11T03:44:48.302Z,99.99
2018-01-11T03:46:41.257Z,99.99
2018-01-11T03:47:41.301Z,99.99
2018-01-11T03:49:34.290Z,99.99
2018-01-11T03:50:34.379Z,99.99
2018-01-11T03:52:27.327Z,99.99
2018-01-11T03:53:27.428Z,99.99
2018-01-11T03:55:20.338Z,99.99
2018-01-11T03:56:20.425Z,99.99
2018-01-11T03:58:13.392Z,99.99
2018-01-11T03:59:13.427Z,99.99
2018-01-11T04:01:06.423Z,99.99
2018-01-11T04:02:06.460Z,99.99
2018-01-11T04:03:59.447Z,99.99
2018-01-11T04:04:59.536Z,99.99
2018-01-11T04:06:52.521Z,99.99
2018-01-11T04:07:52.540Z,99.99
2018-01-11T04:09:45.521Z,99.99
2018-01-11T04:10:45.582Z,99.99
2018-01-11T04:12:38.572Z,99.99
2018-01-11T04:13:38.608Z,99.99
2018-01-11T04:15:31.587Z,99.99
2018-01-11T04:16:31.641Z,99.99
2018-01-11T04:18:24.647Z,99.99
2018-01-11T04:19:24.699Z,99.99
2018-01-11T04:21:17.681Z,99.99
2018-01-11T04:22:17.715Z,99.99
2018-01-11T04:24:10.699Z,99.99
2018-01-11T04:25:10.763Z,99.99
2018-01-11T04:27:03.753Z,99.99
2018-01-11T04:28:03.790Z,99.99
2018-01-11T04:29:56.817Z,99.99
2018-01-11T04:30:56.824Z,99.99
2018-01-11T04:32:49.891Z,99.99
2018-01-11T04:33:49.861Z,99.99
2018-01-11T04:35:42.861Z,99.99
2018-01-11T04:36:42.895Z,99.99
2018-01-11T04:38:35.896Z,99.99
2018-01-11T04:39:35.970Z,99.99
2018-01-11T04:41:28.930Z,99.99
2018-01-11T04:42:28.963Z,99.99
2018-01-11T04:44:21.953Z,99.99
2018-01-11T04:45:21.996Z,99.99
2018-01-11T04:47:14.997Z,99.99
2018-01-11T04:48:15.039Z,99.99
2018-01-11T04:50:08.013Z,99.99
2018-01-11T04:51:08.064Z,99.99
2018-01-11T04:53:01.067Z,99.99
2018-01-11T04:54:01.102Z,99.99
2018-01-11T04:55:54.078Z,99.99
2018-01-11T04:56:54.135Z,99.99
2018-01-11T04:58:47.144Z,99.99
2018-01-11T04:59:47.179Z,99.99
2018-01-11T05:01:40.178Z,99.99
2018-01-11T05:02:40.237Z,99.99
2018-01-11T05:04:33.193Z,99.99
2018-01-11T05:05:33.251Z,99.99
2018-01-11T05:07:26.246Z,99.99
2018-01-11T05:08:26.282Z,99.99
2018-01-11T05:10:19.260Z,99.99
2018-01-11T05:11:19.315Z,99.99
2018-01-11T05:13:12.312Z,99.99
2018-01-11T05:14:12.346Z,99.99
2018-01-11T05:16:05.332Z,99.99
2018-01-11T05:17:05.380Z,99.99
2018-01-11T05:18:58.377Z,99.99
2018-01-11T05:19:58.414Z,99.99
2018-01-11T05:21:51.411Z,99.99
2018-01-11T05:22:51.448Z,99.99
2018-01-11T05:24:44.433Z,99.99
2018-01-11T05:25:44.512Z,99.99
2018-01-11T05:27:37.492Z,99.99
2018-01-11T05:28:37.527Z,99.99
2018-01-11T05:30:30.506Z,99.99
2018-01-11T05:31:30.563Z,99.99
2018-01-11T05:33:23.558Z,99.99
2018-01-11T05:34:23.594Z,99.99
2018-01-11T05:36:16.585Z,99.99
2018-01-11T05:37:16.645Z,99.99
2018-01-11T05:39:09.640Z,99.99
2018-01-11T05:40:09.676Z,99.99
2018-01-11T05:42:02.678Z,99.99
2018-01-11T05:43:02.714Z,99.99
2018-01-11T05:44:55.692Z,99.99
2018-01-11T05:45:55.749Z,99.99
2018-01-11T05:47:48.767Z,99.99
2018-01-11T05:48:48.780Z,99.99
2018-01-11T05:50:41.757Z,99.99
2018-01-11T05:51:41.814Z,99.99
2018-01-11T05:53:34.818Z,99.99
2018-01-11T05:54:34.853Z,99.99
2018-01-11T05:56:27.837Z,99.99
2018-01-11T05:57:27.888Z,99.99
2018-01-11T05:59:20.897Z,99.99
2018-01-11T06:00:20.932Z,99.99
2018-01-11T06:02:14.473Z,99.99
2018-01-11T06:03:13.972Z,99.99
2018-01-11T06:05:06.955Z,99.99
2018-01-11T06:06:07.006Z,99.99
2018-01-11T06:08:00.005Z,99.99
2018-01-11T06:09:00.039Z,99.99
2018-01-11T06:10:53.021Z,99.99
2018-01-11T06:11:53.072Z,99.99
2018-01-11T06:13:46.590Z,99.99
2018-01-11T06:14:46.623Z,99.99
2018-01-11T06:16:39.602Z,99.99
2018-01-11T06:17:39.667Z,99.99
2018-01-11T06:19:32.657Z,99.99
2018-01-11T06:20:32.691Z,99.99
2018-01-11T06:22:25.693Z,99.99
2018-01-11T06:23:25.726Z,99.99
2018-01-11T06:25:18.703Z,99.99
2018-01-11T06:26:18.759Z,99.99
2018-01-11T06:28:11.754Z,99.99
2018-01-11T06:29:11.795Z,99.99
2018-01-11T06:31:04.768Z,99.99
2018-01-11T06:32:04.827Z,99.99
2018-01-11T06:33:57.828Z,99.99
2018-01-11T06:34:57.863Z,99.99
2018-01-11T06:36:50.839Z,99.99
2018-01-11T06:37:50.895Z,99.99
2018-01-11T06:39:43.893Z,99.99
2018-01-11T06:40:43.930Z,99.99
2018-01-11T06:42:36.928Z,99.99
2018-01-11T06:43:36.963Z,99.99
2018-01-11T06:45:29.941Z,99.99
2018-01-11T06:46:29.998Z,99.99
2018-01-11T06:48:23.001Z,99.99
2018-01-11T06:49:23.033Z,99.99
2018-01-11T06:51:16.016Z,99.99
2018-01-11T06:52:16.071Z,99.99
2018-01-11T06:54:09.068Z,99.99
2018-01-11T06:55:09.108Z,99.99
2018-01-11T06:57:02.080Z,99.99
2018-01-11T06:58:02.139Z,99.99
2018-01-11T06:59:55.135Z,99.99
2018-01-11T07:00:55.171Z,99.99
2018-01-11T07:02:48.174Z,99.99
2018-01-11T07:03:48.214Z,99.99
2018-01-11T07:05:41.260Z,99.99
2018-01-11T07:06:41.247Z,99.99
2018-01-11T07:08:34.246Z,99.99
2018-01-11T07:09:34.281Z,99.99
2018-01-11T07:11:27.266Z,99.99
2018-01-11T07:12:27.314Z,99.99
2018-01-11T07:14:20.318Z,99.99
2018-01-11T07:15:20.354Z,99.99
2018-01-11T07:17:13.385Z,99.99
2018-01-11T07:18:13.398Z,99.99
2018-01-11T07:20:06.394Z,99.99
2018-01-11T07:21:06.430Z,99.99
2018-01-11T07:22:59.437Z,99.99
2018-01-11T07:23:59.465Z,99.99
2018-01-11T07:25:52.464Z,99.99
2018-01-11T07:26:52.499Z,99.99
2018-01-11T07:28:45.511Z,99.99
2018-01-11T07:29:45.541Z,99.99
2018-01-11T07:31:38.520Z,99.99
2018-01-11T07:32:38.577Z,99.99
2018-01-11T07:34:31.578Z,99.99
2018-01-11T07:35:31.620Z,99.99
2018-01-11T07:37:24.592Z,99.99
2018-01-11T07:38:24.650Z,99.99
2018-01-11T07:40:17.644Z,99.99
2018-01-11T07:41:17.681Z,99.99
2018-01-11T07:43:10.688Z,99.99
2018-01-11T07:44:10.723Z,99.99
2018-01-11T07:46:03.701Z,99.99
2018-01-11T07:47:03.758Z,99.99
2018-01-11T07:48:56.788Z,99.99
2018-01-11T07:49:56.793Z,99.99
2018-01-11T07:51:49.778Z,99.99
2018-01-11T07:52:49.824Z,99.99
2018-01-11T07:54:42.831Z,99.99
2018-01-11T07:55:42.859Z,99.99
2018-01-11T07:57:35.842Z,99.99
2018-01-11T07:58:35.896Z,99.99
2018-01-11T08:00:28.895Z,99.99
2018-01-11T08:01:28.932Z,99.99
2018-01-11T08:03:21.928Z,99.99
2018-01-11T08:04:22.044Z,99.99
2018-01-11T08:06:14.948Z,99.99
2018-01-11T08:07:15.003Z,99.99
2018-01-11T08:09:08.000Z,99.99
2018-01-11T08:10:08.035Z,99.99
2018-01-11T08:12:01.012Z,99.99
2018-01-11T08:13:01.069Z,99.99
2018-01-11T08:14:54.068Z,99.99
2018-01-11T08:15:54.104Z,99.99
2018-01-11T08:17:47.087Z,99.99
2018-01-11T08:18:47.138Z,99.99
2018-01-11T08:20:40.135Z,99.99
2018-01-11T08:21:40.171Z,99.99
2018-01-11T08:23:33.171Z,99.99
2018-01-11T08:24:33.208Z,99.99
2018-01-11T08:26:26.189Z,99.99
2018-01-11T08:27:26.241Z,99.99
2018-01-11T08:29:19.240Z,99.99
2018-01-11T08:30:19.277Z,99.99
2018-01-11T08:32:12.254Z,99.99
2018-01-11T08:33:12.314Z,99.99
2018-01-11T08:35:05.308Z,99.99
2018-01-11T08:36:05.345Z,99.99
2018-01-11T08:37:58.327Z,99.99
2018-01-11T08:38:58.386Z,99.99
2018-01-11T08:40:51.382Z,99.99
2018-01-11T08:41:51.418Z,99.99
2018-01-11T08:43:44.423Z,99.99
2018-01-11T08:44:44.460Z,99.99
2018-01-11T08:46:37.430Z,99.99
2018-01-11T08:47:37.488Z,99.99
2018-01-11T08:49:30.499Z,99.99
2018-01-11T08:50:30.534Z,99.99
2018-01-11T08:52:23.517Z,99.99
2018-01-11T08:53:23.574Z,99.99
2018-01-11T08:55:16.578Z,99.99
2018-01-11T08:56:16.610Z,99.99
2018-01-11T08:58:09.606Z,99.99
2018-01-11T08:59:09.661Z,99.99
2018-01-11T09:01:02.671Z,99.99
2018-01-11T09:02:02.697Z,99.99
2018-01-11T09:03:55.696Z,99.99
2018-01-11T09:04:55.729Z,99.99
2018-01-11T09:06:48.708Z,99.99
2018-01-11T09:07:48.765Z,99.99
2018-01-11T09:09:41.770Z,99.99
2018-01-11T09:10:41.806Z,99.99
2018-01-11T09:12:34.783Z,99.99
2018-01-11T09:13:34.840Z,99.99
2018-01-11T09:15:27.845Z,99.99
2018-01-11T09:16:27.883Z,99.99
2018-01-11T09:18:20.859Z,99.99
2018-01-11T09:19:20.917Z,99.99
2018-01-11T09:21:13.919Z,99.99
2018-01-11T09:22:13.954Z,99.99
2018-01-11T09:24:06.961Z,99.99
2018-01-11T09:25:06.995Z,99.99
2018-01-11T09:26:59.976Z,99.99
2018-01-11T09:28:00.036Z,99.99
2018-01-11T09:29:53.036Z,99.99
2018-01-11T09:30:53.072Z,99.99
2018-01-11T09:32:46.050Z,99.99
2018-01-11T09:33:46.107Z,99.99
2018-01-11T09:35:39.106Z,99.99
2018-01-11T09:36:39.142Z,99.99
2018-01-11T09:38:32.127Z,99.99
2018-01-11T09:39:32.180Z,99.99
2018-01-11T09:41:25.184Z,99.99
2018-01-11T09:42:25.219Z,99.99
2018-01-11T09:44:18.218Z,99.99
2018-01-11T09:45:18.259Z,99.99
2018-01-11T09:47:11.240Z,99.99
2018-01-11T09:48:11.294Z,99.99
2018-01-11T09:50:04.293Z,99.99
2018-01-11T09:51:04.334Z,99.99
2018-01-11T09:52:57.313Z,99.99
2018-01-11T09:53:57.366Z,99.99
2018-01-11T09:55:50.368Z,99.99
2018-01-11T09:56:50.406Z,99.99
2018-01-11T09:58:43.416Z,99.99
2018-01-11T09:59:43.476Z,99.99
2018-01-11T10:01:36.476Z,99.99
2018-01-11T10:02:36.573Z,99.99
2018-01-11T10:04:29.513Z,99.99
2018-01-11T10:05:29.549Z,99.99
2018-01-11T10:07:22.528Z,99.99
2018-01-11T10:08:22.596Z,99.99
2018-01-11T10:10:15.591Z,99.99
2018-01-11T10:11:15.623Z,99.99
2018-01-11T10:13:08.606Z,99.99
2018-01-11T10:14:08.668Z,99.99
2018-01-11T10:16:01.667Z,99.99
2018-01-11T10:17:01.704Z,99.99
2018-01-11T10:18:54.686Z,99.99
2018-01-11T10:19:54.743Z,99.99
2018-01-11T10:21:47.744Z,99.99
2018-01-11T10:22:47.780Z,99.99
2018-01-11T10:24:40.783Z,99.99
2018-01-11T10:25:40.818Z,99.99
2018-01-11T10:27:33.802Z,99.99
2018-01-11T10:28:33.861Z,99.99
2018-01-11T10:30:26.861Z,99.99
2018-01-11T10:31:26.898Z,99.99
2018-01-11T10:33:19.883Z,99.99
2018-01-11T10:34:19.978Z,99.99
2018-01-11T10:36:12.949Z,99.99
2018-01-11T10:37:12.977Z,99.99
2018-01-11T10:39:05.964Z,99.99
2018-01-11T10:40:06.016Z,99.99
2018-01-11T10:41:59.020Z,99.99
2018-01-11T10:42:59.055Z,99.99
2018-01-11T10:44:53.068Z,99.99
2018-01-11T10:45:52.116Z,99.99
2018-01-11T10:47:45.608Z,99.99
2018-01-11T10:48:45.663Z,99.99
2018-01-11T10:50:38.662Z,99.99
2018-01-11T10:51:38.700Z,99.99
2018-01-11T10:53:31.686Z,99.99
2018-01-11T10:54:31.744Z,99.99
2018-01-11T10:56:24.792Z,99.99
2018-01-11T10:57:24.783Z,99.99
2018-01-11T10:59:17.766Z,99.99
2018-01-11T11:00:17.822Z,99.99
2018-01-11T11:02:10.824Z,99.99
2018-01-11T11:03:10.863Z,99.99
2018-01-11T11:05:03.865Z,99.99
2018-01-11T11:06:03.903Z,99.99
2018-01-11T11:07:56.894Z,99.99
2018-01-11T11:08:56.953Z,99.99
2018-01-11T11:10:49.959Z,99.99
2018-01-11T11:11:49.996Z,99.99
2018-01-11T11:13:42.984Z,99.99
2018-01-11T11:14:43.041Z,99.99
2018-01-11T11:16:36.041Z,99.99
2018-01-11T11:17:36.079Z,99.99
2018-01-11T11:19:29.060Z,99.99
2018-01-11T11:20:29.118Z,99.99
2018-01-11T11:22:22.122Z,99.99
2018-01-11T11:23:22.157Z,99.99
2018-01-11T11:25:15.157Z,99.99
2018-01-11T11:26:15.194Z,99.99
2018-01-11T11:28:08.190Z,99.99
2018-01-11T11:29:08.237Z,99.99
2018-01-11T11:31:01.238Z,99.99
2018-01-11T11:32:01.274Z,99.99
2018-01-11T11:33:54.260Z,99.99
2018-01-11T11:34:54.316Z,99.99
2018-01-11T11:36:47.319Z,99.99
2018-01-11T11:37:47.355Z,99.99
2018-01-11T11:39:40.338Z,99.99
2018-01-11T11:40:40.396Z,99.99
2018-01-11T11:42:33.396Z,99.99
2018-01-11T11:43:33.436Z,99.99
2018-01-11T11:45:26.444Z,99.99
2018-01-11T11:46:26.476Z,99.99
2018-01-11T11:48:19.969Z,99.75
2018-01-11T11:49:20.024Z,99.37
2018-01-11T11:51:13.075Z,99.08
2018-01-11T11:52:13.066Z,99.08
2018-01-11T11:54:06.052Z,98.99
2018-01-11T11:55:06.109Z,98.22
2018-01-11T11:56:59.112Z,98.51
2018-01-11T11:57:59.149Z,98.79
2018-01-11T11:59:52.132Z,98.51
2018-01-11T12:00:52.191Z,98.99
2018-01-11T12:02:45.192Z,98.51
2018-01-11T12:03:45.233Z,98.32
2018-01-11T12:05:38.237Z,98.99
2018-01-11T12:06:38.278Z,98.13
2018-01-11T12:08:31.260Z,97.75
2018-01-11T12:09:31.319Z,98.03
2018-01-11T12:11:24.320Z,97.75
2018-01-11T12:12:24.358Z,97.75
2018-01-11T12:14:17.346Z,97.94
2018-01-11T12:15:17.406Z,98.32
2018-01-11T12:17:10.406Z,99.27
2018-01-11T12:18:10.442Z,98.60
2018-01-11T12:20:03.926Z,98.79
2018-01-11T12:21:03.984Z,98.70
2018-01-11T12:22:56.990Z,98.51
2018-01-11T12:23:57.032Z,98.79
2018-01-11T12:25:50.034Z,98.99
2018-01-11T12:26:50.073Z,98.41
2018-01-11T12:28:43.062Z,99.18
2018-01-11T12:29:43.117Z,99.27
2018-01-11T12:31:36.121Z,99.08
2018-01-11T12:32:36.167Z,98.89
2018-01-11T12:34:29.141Z,98.70
2018-01-11T12:35:29.202Z,99.99
2018-01-11T12:37:22.203Z,99.65
2018-01-11T12:38:22.240Z,99.18
2018-01-11T12:40:15.227Z,99.18
2018-01-11T12:41:15.281Z,98.41
2018-01-11T12:43:08.284Z,98.60
2018-01-11T12:44:08.323Z,98.89
2018-01-11T12:46:01.325Z,99.99
2018-01-11T12:47:01.363Z,99.89
2018-01-11T12:48:54.348Z,99.55
2018-01-11T12:49:54.405Z,98.84
2018-01-11T12:51:47.937Z,98.65
2018-01-11T12:52:47.971Z,98.84
2018-01-11T12:54:40.952Z,98.36
2018-01-11T12:55:41.010Z,97.99
2018-01-11T12:57:34.013Z,98.27
2018-01-11T12:58:34.051Z,98.36
2018-01-11T13:00:27.036Z,98.36
2018-01-11T13:01:27.092Z,98.74
2018-01-11T13:03:20.109Z,99.22
2018-01-11T13:04:20.139Z,99.41
2018-01-11T13:06:13.147Z,99.41
2018-01-11T13:07:13.183Z,99.22
2018-01-11T13:09:06.166Z,99.41
2018-01-11T13:10:06.219Z,99.79
2018-01-11T13:11:59.226Z,99.60
2018-01-11T13:12:59.259Z,99.69
2018-01-11T13:14:52.246Z,99.69
2018-01-11T13:15:52.306Z,99.69
2018-01-11T13:17:45.316Z,99.51
2018-01-11T13:18:45.347Z,99.22
2018-01-11T13:20:38.332Z,99.79
2018-01-11T13:21:38.390Z,99.60
2018-01-11T13:23:31.390Z,99.98
2018-01-11T13:24:31.433Z,99.89
2018-01-11T13:26:24.429Z,99.51
2018-01-11T13:27:24.496Z,99.51
2018-01-11T13:29:17.448Z,99.89
2018-01-11T13:30:17.506Z,99.41
2018-01-11T13:32:10.512Z,99.32
2018-01-11T13:33:10.548Z,99.79
2018-01-11T13:35:03.534Z,99.79
2018-01-11T13:36:03.589Z,99.79
2018-01-11T13:37:56.593Z,99.99
2018-01-11T13:38:56.631Z,99.99
2018-01-11T13:40:49.610Z,99.98
2018-01-11T13:41:49.672Z,99.99
2018-01-11T13:43:42.671Z,99.99
2018-01-11T13:44:42.708Z,99.99
2018-01-11T13:46:35.712Z,99.99
2018-01-11T13:47:35.751Z,99.99
2018-01-11T13:49:28.732Z,99.99
2018-01-11T13:50:28.787Z,99.99
2018-01-11T13:52:21.790Z,99.99
2018-01-11T13:53:21.829Z,99.99
2018-01-11T13:55:14.815Z,99.99
2018-01-11T13:56:14.874Z,99.99
2018-01-11T13:58:07.876Z,99.99
2018-01-11T13:59:07.917Z,99.99
2018-01-11T14:01:00.892Z,99.99
2018-01-11T14:02:00.952Z,99.99
2018-01-11T14:03:53.955Z,99.99
2018-01-11T14:04:53.992Z,99.99
2018-01-11T14:06:46.992Z,99.99
2018-01-11T14:07:47.030Z,99.99
2018-01-11T14:09:40.016Z,99.99
2018-01-11T14:10:40.075Z,99.99
2018-01-11T14:12:33.080Z,99.99
2018-01-11T14:13:33.115Z,99.99
2018-01-11T14:15:26.097Z,99.99
2018-01-11T14:16:26.157Z,99.99
2018-01-11T14:18:19.169Z,99.99
2018-01-11T14:19:19.201Z,99.99
2018-01-11T14:21:12.228Z,99.99
2018-01-11T14:22:12.238Z,99.99
2018-01-11T14:24:05.247Z,99.99
2018-01-11T14:25:05.277Z,99.99
2018-01-11T14:26:58.278Z,99.99
2018-01-11T14:27:58.317Z,99.99
2018-01-11T14:29:51.300Z,99.99
2018-01-11T14:30:51.354Z,99.99
2018-01-11T14:32:44.356Z,99.99
2018-01-11T14:33:44.394Z,99.99
2018-01-11T14:35:37.379Z,99.99
2018-01-11T14:36:37.432Z,99.99
2018-01-11T14:38:30.438Z,99.99
2018-01-11T14:39:30.493Z,99.99
2018-01-11T14:41:23.454Z,99.99
2018-01-11T14:42:23.511Z,99.99
2018-01-11T14:44:16.512Z,99.99
2018-01-11T14:45:16.550Z,99.99
2018-01-11T14:47:09.550Z,99.99
2018-01-11T14:48:09.591Z,99.99
2018-01-11T14:50:02.574Z,99.99
2018-01-11T14:51:02.633Z,99.99
2018-01-11T14:52:55.626Z,99.99
2018-01-11T14:53:55.683Z,99.99
2018-01-11T14:55:48.662Z,99.99
2018-01-11T14:56:48.718Z,99.99
2018-01-11T14:58:41.720Z,99.99
2018-01-11T14:59:41.844Z,99.99
2018-01-11T15:01:34.735Z,99.99
2018-01-11T15:02:34.793Z,99.99
2018-01-11T15:04:27.814Z,99.99
2018-01-11T15:05:27.837Z,99.99
2018-01-11T15:07:20.843Z,99.99
2018-01-11T15:08:20.885Z,99.99
2018-01-11T15:10:13.868Z,99.99
2018-01-11T15:11:13.923Z,99.99
2018-01-11T15:13:06.931Z,99.99
2018-01-11T15:14:06.984Z,99.99
2018-01-11T15:15:59.948Z,99.99
2018-01-11T15:17:00.002Z,99.99
2018-01-11T15:18:53.006Z,99.99
2018-01-11T15:19:53.044Z,99.99
2018-01-11T15:21:46.030Z,99.99
2018-01-11T15:22:46.081Z,99.99
2018-01-11T15:24:39.099Z,99.99
2018-01-11T15:25:39.123Z,99.99
2018-01-11T15:27:32.123Z,99.99
2018-01-11T15:28:32.159Z,99.99
2018-01-11T15:30:25.164Z,99.99
2018-01-11T15:31:25.199Z,99.99
2018-01-11T15:33:18.203Z,99.99
2018-01-11T15:34:18.237Z,99.99
2018-01-11T15:36:11.227Z,99.99
2018-01-11T15:37:11.276Z,99.99
2018-01-11T15:39:04.278Z,99.99
2018-01-11T15:40:04.334Z,99.99
2018-01-11T15:41:57.297Z,99.99
2018-01-11T15:42:57.394Z,99.99
2018-01-11T15:44:50.359Z,99.99
2018-01-11T15:45:50.391Z,99.99
2018-01-11T15:47:43.393Z,99.99
2018-01-11T15:48:43.427Z,99.99
2018-01-11T15:50:36.410Z,99.99
2018-01-11T15:51:36.469Z,99.99
2018-01-11T15:53:29.489Z,99.99
2018-01-11T15:54:29.506Z,99.99
2018-01-11T15:56:22.489Z,99.99
2018-01-11T15:57:22.549Z,99.99
2018-01-11T15:59:15.547Z,99.99
2018-01-11T16:00:15.584Z,99.99
2018-01-11T16:02:08.564Z,99.99
2018-01-11T16:03:08.621Z,99.99
2018-01-11T16:05:02.631Z,99.99
2018-01-11T16:06:01.727Z,99.99
2018-01-11T16:07:54.734Z,99.99
2018-01-11T16:08:54.765Z,99.99
2018-01-11T16:10:47.757Z,99.99
2018-01-11T16:11:47.812Z,99.99
2018-01-11T16:13:40.813Z,99.99
2018-01-11T16:14:40.845Z,99.99
2018-01-11T16:16:33.834Z,99.99
2018-01-11T16:17:33.894Z,99.99
2018-01-11T16:19:26.927Z,99.99
2018-01-11T16:20:26.968Z,99.99
2018-01-11T16:22:19.949Z,99.99
2018-01-11T16:23:20.003Z,99.99
2018-01-11T16:25:13.003Z,99.99
2018-01-11T16:26:13.045Z,99.99
2018-01-11T16:28:06.044Z,99.99
2018-01-11T16:29:06.076Z,99.99
2018-01-11T16:30:59.056Z,99.99
2018-01-11T16:31:59.113Z,99.99
2018-01-11T16:33:52.136Z,99.99
2018-01-11T16:34:52.149Z,99.99
2018-01-11T16:36:45.130Z,99.99
2018-01-11T16:37:45.188Z,99.99
2018-01-11T16:39:38.199Z,99.99
2018-01-11T16:40:38.230Z,99.99
2018-01-11T16:42:31.209Z,99.99
2018-01-11T16:43:31.264Z,99.99
2018-01-11T16:45:24.269Z,99.99
2018-01-11T16:46:24.304Z,99.99
2018-01-11T16:48:17.302Z,99.99
2018-01-11T16:49:17.341Z,99.99
2018-01-11T16:51:10.330Z,99.99
2018-01-11T16:52:10.381Z,99.99
2018-01-11T16:54:03.380Z,99.99
2018-01-11T16:55:03.419Z,99.99
2018-01-11T16:56:56.907Z,99.99
2018-01-11T16:57:56.966Z,99.99
2018-01-11T16:59:49.960Z,99.99
2018-01-11T17:00:49.997Z,99.99
2018-01-11T17:02:42.975Z,99.99
2018-01-11T17:03:43.032Z,99.99
2018-01-11T17:05:36.044Z,99.99
2018-01-11T17:06:36.079Z,99.99
2018-01-11T17:08:29.082Z,99.99
2018-01-11T17:09:29.121Z,99.99
2018-01-11T17:11:22.102Z,99.99
2018-01-11T17:12:22.159Z,99.99
2018-01-11T17:14:15.161Z,99.99
2018-01-11T17:15:15.199Z,99.99
2018-01-11T17:17:08.176Z,99.99
2018-01-11T17:18:08.235Z,99.99
2018-01-11T17:20:01.232Z,99.99
2018-01-11T17:21:01.269Z,99.99
2018-01-11T17:22:54.256Z,99.99
2018-01-11T17:23:54.312Z,99.99
2018-01-11T17:25:47.312Z,99.99
2018-01-11T17:26:47.349Z,99.99
2018-01-11T17:28:40.355Z,99.99
2018-01-11T17:29:40.388Z,99.99
2018-01-11T17:31:33.367Z,99.99
2018-01-11T17:32:33.424Z,99.99
2018-01-11T17:34:26.444Z,99.99
2018-01-11T17:35:26.460Z,99.99
2018-01-11T17:37:19.436Z,99.99
2018-01-11T17:38:19.585Z,99.99
2018-01-11T17:40:12.493Z,99.99
2018-01-11T17:41:12.532Z,99.99
2018-01-11T17:43:05.510Z,99.99
2018-01-11T17:44:05.574Z,99.99
2018-01-11T17:45:58.567Z,99.99
2018-01-11T17:46:58.605Z,99.99
2018-01-11T17:48:51.606Z,99.99
2018-01-11T17:49:51.646Z,99.99
2018-01-11T17:51:44.625Z,99.99
2018-01-11T17:52:44.680Z,99.99
2018-01-11T17:54:37.676Z,99.99
2018-01-11T17:55:37.716Z,99.99
2018-01-11T17:57:30.696Z,99.99
2018-01-11T17:58:30.773Z,99.99
2018-01-11T18:00:23.750Z,99.99
2018-01-11T18:01:23.791Z,99.99
2018-01-11T18:03:16.771Z,99.99
2018-01-11T18:04:16.827Z,99.99
2018-01-11T18:06:09.825Z,99.99
2018-01-11T18:07:09.867Z,99.99
2018-01-11T18:09:02.923Z,99.99
2018-01-11T18:10:03.208Z,99.99
2018-01-11T18:11:55.932Z,99.99
2018-01-11T18:12:55.989Z,99.99
2018-01-11T18:14:48.991Z,99.99
2018-01-11T18:15:49.079Z,99.99
2018-01-11T18:17:42.014Z,99.99
2018-01-11T18:18:42.072Z,99.99
2018-01-11T18:20:35.078Z,99.99
2018-01-11T18:21:35.115Z,99.99
2018-01-11T18:23:28.108Z,99.99
2018-01-11T18:24:28.159Z,99.99
2018-01-11T18:26:21.157Z,99.99
2018-01-11T18:27:21.192Z,99.99
2018-01-11T18:29:14.193Z,99.99
2018-01-11T18:30:14.229Z,99.99
2018-01-11T18:32:07.223Z,99.99
2018-01-11T18:33:07.296Z,99.99
2018-01-11T18:35:00.279Z,99.99